Observation data for Olton on 01/17/2019      Previous  Date  Next       Current Mesonet Observations  Soil Data  Daily Summary Page  Observations in Plain Language
KONS 170600Z 28018G23KT 11/M02 A3009 RMK A01 T01121023  RH  039%=      5-min Rain = 0
KONS 170605Z 28018G24KT 11/M02 A3009 RMK A01 T01121023  RH  039%=      5-min Rain = 0
KONS 170610Z 29018KT 11/M02 A301 RMK A01 T01111022  RH  040%=      5-min Rain = 0
KONS 170615Z 28018G23KT 11/M02 A3009 RMK A01 T01071022  RH  041%=      5-min Rain = 0
KONS 170620Z 28015G20KT 10/M02 A3009 RMK A01 T01041021  RH  042%=      5-min Rain = 0
KONS 170625Z 29013G18KT 10/M02 A3009 RMK A01 T01011020  RH  043%=      5-min Rain = 0
KONS 170630Z 30012KT 10/M02 A3009 RMK A01 T00971020  RH  044%=      5-min Rain = 0
KONS 170635Z 28014G19KT 10/M02 A3009 RMK A01 T00951020  RH  045%=      5-min Rain = 0
KONS 170640Z 28016G22KT 10/M02 A3009 RMK A01 T00951020  RH  045%=      5-min Rain = 0
KONS 170645Z 28015G21KT 10/M02 A3009 RMK A01 T00951019  RH  045%=      5-min Rain = 0
KONS 170650Z 29015KT 09/M02 A3009 RMK A01 T00931019  RH  046%=      5-min Rain = 0
KONS 170655Z 28016KT 09/M02 A3009 RMK A01 T00931019  RH  046%=      5-min Rain = 0
KONS 170700Z 29016KT 09/M02 A3008 RMK A01 T00921019  RH  046%=      5-min Rain = 0
KONS 170705Z 29014KT 09/M02 A3008 RMK A01 T00901019  RH  047%=      5-min Rain = 0
KONS 170710Z 29015KT 09/M02 A3008 RMK A01 T00881019  RH  048%=      5-min Rain = 0
KONS 170715Z 29015G20KT 09/M02 A3008 RMK A01 T00871019  RH  048%=      5-min Rain = 0
KONS 170720Z 29016KT 09/M02 A3008 RMK A01 T00891019  RH  047%=      5-min Rain = 0
KONS 170725Z 29015G20KT 09/M02 A3008 RMK A01 T00891019  RH  047%=      5-min Rain = 0
KONS 170730Z 28015KT 09/M02 A3008 RMK A01 T00871019  RH  048%=      5-min Rain = 0
KONS 170735Z 28016G21KT 09/M02 A3008 RMK A01 T00881019  RH  047%=      5-min Rain = 0
KONS 170740Z 28016G21KT 09/M02 A3008 RMK A01 T00901020  RH  047%=      5-min Rain = 0
KONS 170745Z 29016G22KT 09/M02 A3008 RMK A01 T00891020  RH  047%=      5-min Rain = 0
KONS 170750Z 28016KT 09/M02 A3008 RMK A01 T00891020  RH  047%=      5-min Rain = 0
KONS 170755Z 29016G21KT 09/M02 A3009 RMK A01 T00901020  RH  047%=      5-min Rain = 0
KONS 170800Z 29016KT 09/M02 A3009 RMK A01 T00891020  RH  047%=      5-min Rain = 0
KONS 170805Z 29016KT 09/M02 A3009 RMK A01 T00891020  RH  047%=      5-min Rain = 0
KONS 170810Z 28016G21KT 09/M02 A3009 RMK A01 T00881020  RH  047%=      5-min Rain = 0
KONS 170815Z 28015KT 09/M02 A3009 RMK A01 T00861019  RH  048%=      5-min Rain = 0
KONS 170820Z 28015KT 09/M02 A301 RMK A01 T00861019  RH  048%=      5-min Rain = 0
KONS 170825Z 28015KT 09/M02 A301 RMK A01 T00851019  RH  048%=      5-min Rain = 0
KONS 170830Z 28015KT 08/M02 A301 RMK A01 T00841020  RH  049%=      5-min Rain = 0
KONS 170835Z 29014KT 08/M02 A301 RMK A01 T00841020  RH  048%=      5-min Rain = 0
KONS 170840Z 29015KT 08/M02 A301 RMK A01 T00831020  RH  049%=      5-min Rain = 0
KONS 170845Z 29015G20KT 08/M02 A3011 RMK A01 T00841020  RH  048%=      5-min Rain = 0
KONS 170850Z 28015KT 08/M02 A3011 RMK A01 T00831020  RH  049%=      5-min Rain = 0
KONS 170855Z 28015G20KT 08/M02 A3011 RMK A01 T00821020  RH  049%=      5-min Rain = 0
KONS 170900Z 28015KT 08/M02 A301 RMK A01 T00811020  RH  049%=      5-min Rain = 0
KONS 170905Z 28014KT 08/M02 A3011 RMK A01 T00811020  RH  050%=      5-min Rain = 0
KONS 170910Z 28014KT 08/M02 A3011 RMK A01 T00791019  RH  050%=      5-min Rain = 0
KONS 170915Z 28014KT 08/M02 A3011 RMK A01 T00771019  RH  051%=      5-min Rain = 0
KONS 170920Z 28014KT 08/M02 A3011 RMK A01 T00761019  RH  051%=      5-min Rain = 0
KONS 170925Z 28014KT 08/M02 A3011 RMK A01 T00751019  RH  052%=      5-min Rain = 0
KONS 170930Z 28013KT 07/M02 A3011 RMK A01 T00731019  RH  053%=      5-min Rain = 0
KONS 170935Z 28013G19KT 07/M02 A3011 RMK A01 T00731019  RH  053%=      5-min Rain = 0
KONS 170940Z 28013KT 07/M02 A3011 RMK A01 T00721019  RH  053%=      5-min Rain = 0
KONS 170945Z 28013KT 07/M02 A3011 RMK A01 T00711019  RH  054%=      5-min Rain = 0
KONS 170950Z 28012KT 07/M02 A3012 RMK A01 T00701019  RH  054%=      5-min Rain = 0
KONS 170955Z 29012KT 07/M02 A3012 RMK A01 T00691019  RH  054%=      5-min Rain = 0
KONS 171000Z 29013KT 07/M02 A3011 RMK A01 T00701018  RH  054%=      5-min Rain = 0
KONS 171005Z 29014KT 07/M02 A3011 RMK A01 T00711018  RH  054%=      5-min Rain = 0
KONS 171010Z 29014KT 07/M02 A3012 RMK A01 T00701018  RH  054%=      5-min Rain = 0
KONS 171015Z 29013KT 07/M02 A3012 RMK A01 T00681018  RH  054%=      5-min Rain = 0
KONS 171020Z 29013KT 07/M02 A3012 RMK A01 T00661019  RH  055%=      5-min Rain = 0
KONS 171025Z 30013KT 06/M02 A3012 RMK A01 T00641019  RH  056%=      5-min Rain = 0
KONS 171030Z 30012KT 06/M02 A3012 RMK A01 T00601019  RH  057%=      5-min Rain = 0
KONS 171035Z 29012KT 06/M02 A3012 RMK A01 T00571019  RH  059%=      5-min Rain = 0
KONS 171040Z 28011KT 06/M02 A3012 RMK A01 T00551019  RH  059%=      5-min Rain = 0
KONS 171045Z 28011KT 06/M02 A3012 RMK A01 T00551019  RH  060%=      5-min Rain = 0
KONS 171050Z 28010KT 05/M02 A3013 RMK A01 T00531019  RH  060%=      5-min Rain = 0
KONS 171055Z 27010KT 05/M02 A3013 RMK A01 T00511019  RH  062%=      5-min Rain = 0
KONS 171100Z 26011KT 05/M02 A3013 RMK A01 T00491018  RH  062%=      5-min Rain = 0
KONS 171105Z 26008KT 04/M02 A3013 RMK A01 T00441020  RH  064%=      5-min Rain = 0
KONS 171110Z 26009KT 04/M02 A3013 RMK A01 T00431019  RH  065%=      5-min Rain = 0
KONS 171115Z 27009KT 04/M02 A3013 RMK A01 T00441019  RH  064%=      5-min Rain = 0
KONS 171120Z 27008KT 04/M02 A3013 RMK A01 T00431019  RH  065%=      5-min Rain = 0
KONS 171125Z 28009KT 04/M02 A3013 RMK A01 T00411019  RH  066%=      5-min Rain = 0
KONS 171130Z 28010KT 04/M02 A3013 RMK A01 T00421018  RH  066%=      5-min Rain = 0
KONS 171135Z 29011KT 05/M02 A3013 RMK A01 T00451018  RH  064%=      5-min Rain = 0
KONS 171140Z 29010KT 05/M02 A3013 RMK A01 T00451018  RH  064%=      5-min Rain = 0
KONS 171145Z 29010KT 04/M02 A3013 RMK A01 T00441018  RH  064%=      5-min Rain = 0
KONS 171150Z 32008KT 04/M02 A3014 RMK A01 T00381021  RH  066%=      5-min Rain = 0
KONS 171155Z 33006KT 03/M03 A3014 RMK A01 T00281025  RH  069%=      5-min Rain = 0
KONS 171200Z 31006KT 02/M03 A3015 RMK A01 T00191027  RH  072%=      5-min Rain = 0
KONS 171205Z 32008KT 01/M03 A3015 RMK A01 T00121029  RH  075%=      5-min Rain = 0
KONS 171210Z 32008KT 01/M03 A3015 RMK A01 T00091028  RH  077%=      5-min Rain = 0
KONS 171215Z 31008KT 01/M03 A3015 RMK A01 T00101026  RH  078%=      5-min Rain = 0
KONS 171220Z 32008KT 01/M03 A3015 RMK A01 T00101026  RH  077%=      5-min Rain = 0
KONS 171225Z 32008KT 01/M03 A3015 RMK A01 T00091027  RH  078%=      5-min Rain = 0
KONS 171230Z 31008KT 01/M03 A3016 RMK A01 T00081027  RH  079%=      5-min Rain = 0
KONS 171235Z 31008KT 01/M03 A3016 RMK A01 T00081026  RH  078%=      5-min Rain = 0
KONS 171240Z 31008KT 01/M03 A3016 RMK A01 T00071028  RH  078%=      5-min Rain = 0
KONS 171245Z 31008KT 01/M03 A3016 RMK A01 T00051029  RH  079%=      5-min Rain = 0
KONS 171250Z 30008KT 00/M03 A3017 RMK A01 T00031030  RH  080%=      5-min Rain = 0
KONS 171255Z 30008KT 00/M03 A3017 RMK A01 T00021030  RH  080%=      5-min Rain = 0
KONS 171300Z 29008KT 00/M03 A3017 RMK A01 T00011031  RH  080%=      5-min Rain = 0
KONS 171305Z 29009KT M00/M03 A3017 RMK A01 T10011031  RH  081%=      5-min Rain = 0
KONS 171310Z 29010KT 00/M03 A3017 RMK A01 T00031027  RH  081%=      5-min Rain = 0
KONS 171315Z 29010KT 01/M02 A3017 RMK A01 T00071024  RH  080%=      5-min Rain = 0
KONS 171320Z 30010KT 01/M02 A3017 RMK A01 T00111024  RH  078%=      5-min Rain = 0
KONS 171325Z 30011KT 01/M03 A3017 RMK A01 T00091025  RH  079%=      5-min Rain = 0
KONS 171330Z 30012KT 01/M02 A3018 RMK A01 T00121023  RH  078%=      5-min Rain = 0
KONS 171335Z 30011KT 01/M02 A3018 RMK A01 T00121024  RH  078%=      5-min Rain = 0
KONS 171340Z 30011KT 01/M02 A3018 RMK A01 T00111024  RH  078%=      5-min Rain = 0
KONS 171345Z 30011KT 01/M02 A3019 RMK A01 T00121024  RH  078%=      5-min Rain = 0
KONS 171350Z 31011KT 01/M02 A3019 RMK A01 T00121024  RH  078%=      5-min Rain = 0
KONS 171355Z 30012KT 01/M02 A3019 RMK A01 T00131023  RH  078%=      5-min Rain = 0
KONS 171400Z 31012KT 01/M02 A3019 RMK A01 T00141023  RH  077%=      5-min Rain = 0
KONS 171405Z 30012KT 02/M02 A3018 RMK A01 T00161021  RH  077%=      5-min Rain = 0
KONS 171410Z 30012KT 02/M02 A3018 RMK A01 T00201020  RH  076%=      5-min Rain = 0
KONS 171415Z 30011KT 02/M02 A3018 RMK A01 T00211019  RH  076%=      5-min Rain = 0
KONS 171420Z 30012KT 02/M02 A3018 RMK A01 T00241018  RH  075%=      5-min Rain = 0
KONS 171425Z 30012KT 03/M02 A3018 RMK A01 T00281017  RH  073%=      5-min Rain = 0
KONS 171430Z 31011KT 03/M02 A3018 RMK A01 T00301017  RH  072%=      5-min Rain = 0
KONS 171435Z 31011KT 03/M02 A3017 RMK A01 T00311016  RH  072%=      5-min Rain = 0
KONS 171440Z 30009KT 03/M02 A3018 RMK A01 T00331015  RH  072%=      5-min Rain = 0
KONS 171445Z 31008KT 04/M01 A3018 RMK A01 T00351014  RH  071%=      5-min Rain = 0
KONS 171450Z 30009KT 04/M01 A3018 RMK A01 T00391012  RH  070%=      5-min Rain = 0
KONS 171455Z 30008KT 04/M01 A3018 RMK A01 T00431011  RH  069%=      5-min Rain = 0
KONS 171500Z 30007KT 05/M01 A3019 RMK A01 T00481009  RH  067%=      5-min Rain = 0
KONS 171505Z 30006KT 05/M01 A3019 RMK A01 T00521008  RH  066%=      5-min Rain = 0
KONS 171510Z 29005KT 06/M01 A3019 RMK A01 T00551009  RH  064%=      5-min Rain = 0
KONS 171515Z 28006KT 06/M01 A3019 RMK A01 T00591008  RH  063%=      5-min Rain = 0
KONS 171520Z 28006KT 07/M01 A3019 RMK A01 T00651006  RH  061%=      5-min Rain = 0
KONS 171525Z 28009KT 07/M01 A3019 RMK A01 T00681007  RH  059%=      5-min Rain = 0
KONS 171530Z 28008KT 07/M01 A3019 RMK A01 T00691006  RH  060%=      5-min Rain = 0
KONS 171535Z 29009KT 07/M01 A3019 RMK A01 T00721006  RH  058%=      5-min Rain = 0
KONS 171540Z 29010KT 07/M01 A3019 RMK A01 T00741008  RH  056%=      5-min Rain = 0
KONS 171545Z 29009KT 08/M01 A3019 RMK A01 T00771008  RH  056%=      5-min Rain = 0
KONS 171550Z 30011KT 08/M01 A3019 RMK A01 T00791010  RH  054%=      5-min Rain = 0
KONS 171555Z 29010KT 08/M01 A3019 RMK A01 T00791009  RH  054%=      5-min Rain = 0
KONS 171600Z 29010KT 08/M01 A3019 RMK A01 T00811008  RH  054%=      5-min Rain = 0
KONS 171605Z 30010KT 08/M01 A3019 RMK A01 T00821008  RH  054%=      5-min Rain = 0
KONS 171610Z 30009KT 08/M01 A3019 RMK A01 T00841007  RH  053%=      5-min Rain = 0
KONS 171615Z 29009KT 09/M01 A3019 RMK A01 T00861007  RH  053%=      5-min Rain = 0
KONS 171620Z 27008KT 09/M01 A302 RMK A01 T00911006  RH  051%=      5-min Rain = 0
KONS 171625Z 28007KT 10/M01 A302 RMK A01 T00951007  RH  050%=      5-min Rain = 0
KONS 171630Z 27008KT 10/M01 A3021 RMK A01 T00971008  RH  048%=      5-min Rain = 0
KONS 171635Z 27007KT 10/M01 A302 RMK A01 T01011007  RH  048%=      5-min Rain = 0
KONS 171640Z 25008KT 10/M01 A3021 RMK A01 T01021005  RH  048%=      5-min Rain = 0
KONS 171645Z 25008KT 10/M00 A3021 RMK A01 T01041004  RH  048%=      5-min Rain = 0
KONS 171650Z 26007KT 11/M00 A3021 RMK A01 T01071002  RH  047%=      5-min Rain = 0
KONS 171655Z 27006KT 11/M00 A3021 RMK A01 T01111002  RH  046%=      5-min Rain = 0
KONS 171700Z 28007KT 11/M01 A3021 RMK A01 T01141008  RH  043%=      5-min Rain = 0
KONS 171705Z 27007KT 12/M01 A3021 RMK A01 T01161006  RH  044%=      5-min Rain = 0
KONS 171710Z 27006KT 12/M01 A3021 RMK A01 T01181006  RH  043%=      5-min Rain = 0
KONS 171715Z 28005KT 12/M01 A3021 RMK A01 T01201006  RH  042%=      5-min Rain = 0
KONS 171720Z 29005KT 13/M01 A3022 RMK A01 T01251007  RH  041%=      5-min Rain = 0
KONS 171725Z 28004KT 13/M01 A3022 RMK A01 T01271014  RH  038%=      5-min Rain = 0
KONS 171730Z 28004KT 13/M02 A3022 RMK A01 T01291015  RH  037%=      5-min Rain = 0
KONS 171735Z 30004KT 13/M02 A3022 RMK A01 T01311015  RH  037%=      5-min Rain = 0
KONS 171740Z 28004KT 13/M02 A3022 RMK A01 T01321015  RH  036%=      5-min Rain = 0
KONS 171745Z 28003KT 14/M02 A3022 RMK A01 T01361015  RH  036%=      5-min Rain = 0
KONS 171750Z 28003KT 14/M03 A3021 RMK A01 T01381025  RH  033%=      5-min Rain = 0
KONS 171755Z 30001KT 14/M03 A3021 RMK A01 T01391030  RH  031%=      5-min Rain = 0
KONS 171800Z 29003KT 14/M03 A3021 RMK A01 T01431030  RH  030%=      5-min Rain = 0
KONS 171805Z 28002KT 14/M03 A3021 RMK A01 T01441032  RH  030%=      5-min Rain = 0
KONS 171810Z 23003KT 15/M03 A302 RMK A01 T01491032  RH  029%=      5-min Rain = 0
KONS 171815Z 20002KT 15/M03 A302 RMK A01 T01511032  RH  029%=      5-min Rain = 0
KONS 171820Z 21001KT 15/M03 A302 RMK A01 T01541032  RH  028%=      5-min Rain = 0
KONS 171825Z 21002KT 16/M03 A3019 RMK A01 T01581028  RH  028%=      5-min Rain = 0
KONS 171830Z 23003KT 16/M03 A3019 RMK A01 T01591028  RH  028%=      5-min Rain = 0
KONS 171835Z 19003KT 16/M03 A3018 RMK A01 T01561027  RH  029%=      5-min Rain = 0
KONS 171840Z 20003KT 16/M03 A3018 RMK A01 T01561026  RH  029%=      5-min Rain = 0
KONS 171845Z 20004KT 16/M03 A3018 RMK A01 T01581029  RH  028%=      5-min Rain = 0
KONS 171850Z 20004KT 16/M03 A3018 RMK A01 T01581032  RH  027%=      5-min Rain = 0
KONS 171855Z 20003KT 16/M03 A3017 RMK A01 T01601032  RH  027%=      5-min Rain = 0
KONS 171900Z 20003KT 16/M03 A3017 RMK A01 T01601028  RH  028%=      5-min Rain = 0
KONS 171905Z 20003KT 16/M03 A3016 RMK A01 T01611027  RH  028%=      5-min Rain = 0
KONS 171910Z 19004KT 16/M03 A3016 RMK A01 T01631029  RH  027%=      5-min Rain = 0
KONS 171915Z 20003KT 16/M03 A3015 RMK A01 T01631028  RH  027%=      5-min Rain = 0
KONS 171920Z 22001KT 17/M03 A3015 RMK A01 T01671028  RH  027%=      5-min Rain = 0
KONS 171925Z 19002KT 17/M03 A3014 RMK A01 T01711025  RH  026%=      5-min Rain = 0
KONS 171930Z 20002KT 17/M03 A3014 RMK A01 T01701029  RH  026%=      5-min Rain = 0
KONS 171935Z 26003KT 17/M03 A3013 RMK A01 T01711032  RH  025%=      5-min Rain = 0
KONS 171940Z 23004KT 17/M04 A3013 RMK A01 T01711042  RH  023%=      5-min Rain = 0
KONS 171945Z 26002KT 17/M05 A3013 RMK A01 T01711045  RH  023%=      5-min Rain = 0
KONS 171950Z 18003KT 17/M04 A3012 RMK A01 T01741043  RH  023%=      5-min Rain = 0
KONS 171955Z 18003KT 18/M04 A3012 RMK A01 T01751040  RH  023%=      5-min Rain = 0
KONS 172000Z 19005KT 18/M04 A3012 RMK A01 T01771038  RH  023%=      5-min Rain = 0
KONS 172005Z 20006KT 18/M05 A3011 RMK A01 T01751047  RH  022%=      5-min Rain = 0
KONS 172010Z 19006KT 18/M05 A3011 RMK A01 T01751051  RH  021%=      5-min Rain = 0
KONS 172015Z 20008KT 18/M04 A3011 RMK A01 T01791040  RH  022%=      5-min Rain = 0
KONS 172020Z 22007KT 18/M05 A301 RMK A01 T01771048  RH  021%=      5-min Rain = 0
KONS 172025Z 22005KT 18/M04 A301 RMK A01 T01781044  RH  022%=      5-min Rain = 0
KONS 172030Z 21006KT 18/M04 A301 RMK A01 T01811042  RH  022%=      5-min Rain = 0
KONS 172035Z 21010KT 18/M04 A3009 RMK A01 T01791043  RH  022%=      5-min Rain = 0
KONS 172040Z 22006KT 18/M04 A3009 RMK A01 T01801044  RH  022%=      5-min Rain = 0
KONS 172045Z 22007KT 18/M04 A3009 RMK A01 T01811042  RH  022%=      5-min Rain = 0
KONS 172050Z 19006KT 18/M04 A3009 RMK A01 T01811039  RH  022%=      5-min Rain = 0
KONS 172055Z 20009KT 18/M04 A3009 RMK A01 T01821037  RH  023%=      5-min Rain = 0
KONS 172100Z 20007KT 18/M04 A3009 RMK A01 T01831036  RH  023%=      5-min Rain = 0
KONS 172105Z 20008KT 18/M04 A3008 RMK A01 T01831035  RH  023%=      5-min Rain = 0
KONS 172110Z 19009KT 18/M04 A3008 RMK A01 T01831036  RH  023%=      5-min Rain = 0
KONS 172115Z 19009KT 18/M03 A3008 RMK A01 T01831032  RH  023%=      5-min Rain = 0
KONS 172120Z 19010KT 19/M03 A3008 RMK A01 T01851030  RH  023%=      5-min Rain = 0
KONS 172125Z 21009KT 19/M04 A3008 RMK A01 T01851035  RH  022%=      5-min Rain = 0
KONS 172130Z 20008KT 19/M03 A3008 RMK A01 T01851030  RH  023%=      5-min Rain = 0
KONS 172135Z 19008KT 18/M03 A3008 RMK A01 T01831030  RH  024%=      5-min Rain = 0
KONS 172140Z 18009KT 18/M03 A3008 RMK A01 T01831027  RH  024%=      5-min Rain = 0
KONS 172145Z 20010KT 18/M03 A3008 RMK A01 T01821032  RH  023%=      5-min Rain = 0
KONS 172150Z 20008KT 18/M04 A3008 RMK A01 T01821035  RH  023%=      5-min Rain = 0
KONS 172155Z 20009KT 18/M03 A3008 RMK A01 T01821025  RH  025%=      5-min Rain = 0
KONS 172200Z 21009KT 18/M03 A3008 RMK A01 T01811030  RH  024%=      5-min Rain = 0
KONS 172205Z 20007KT 18/M03 A3008 RMK A01 T01831025  RH  024%=      5-min Rain = 0
KONS 172210Z 19008G13KT 19/M02 A3007 RMK A01 T01851021  RH  025%=      5-min Rain = 0
KONS 172215Z 19010KT 18/M03 A3007 RMK A01 T01831031  RH  023%=      5-min Rain = 0
KONS 172220Z 19009KT 18/M02 A3007 RMK A01 T01821018  RH  026%=      5-min Rain = 0
KONS 172225Z 19007KT 18/M03 A3007 RMK A01 T01821025  RH  025%=      5-min Rain = 0
KONS 172230Z 19010KT 18/M02 A3007 RMK A01 T01811019  RH  026%=      5-min Rain = 0
KONS 172235Z 18010KT 18/M03 A3007 RMK A01 T01791028  RH  025%=      5-min Rain = 0
KONS 172240Z 19009KT 18/M02 A3007 RMK A01 T01781018  RH  027%=      5-min Rain = 0
KONS 172245Z 19010KT 18/M02 A3007 RMK A01 T01761019  RH  027%=      5-min Rain = 0
KONS 172250Z 19009KT 17/M02 A3007 RMK A01 T01741015  RH  028%=      5-min Rain = 0
KONS 172255Z 19010KT 17/M02 A3007 RMK A01 T01711016  RH  028%=      5-min Rain = 0
KONS 172300Z 20010KT 17/M01 A3007 RMK A01 T01701014  RH  029%=      5-min Rain = 0
KONS 172305Z 19009KT 17/M02 A3007 RMK A01 T01721015  RH  028%=      5-min Rain = 0
KONS 172310Z 19009KT 17/M02 A3007 RMK A01 T01711015  RH  029%=      5-min Rain = 0
KONS 172315Z 18009KT 17/M01 A3006 RMK A01 T01681010  RH  030%=      5-min Rain = 0
KONS 172320Z 18010KT 17/M02 A3006 RMK A01 T01651016  RH  029%=      5-min Rain = 0
KONS 172325Z 17011KT 17/M03 A3006 RMK A01 T01651028  RH  027%=      5-min Rain = 0
KONS 172330Z 17010KT 16/M02 A3006 RMK A01 T01621023  RH  028%=      5-min Rain = 0
KONS 172335Z 17009KT 16/M03 A3006 RMK A01 T01571028  RH  028%=      5-min Rain = 0
KONS 172340Z 17009KT 15/M03 A3006 RMK A01 T01541031  RH  028%=      5-min Rain = 0
KONS 172345Z 16009KT 15/M03 A3006 RMK A01 T01501032  RH  029%=      5-min Rain = 0
KONS 172350Z 16009KT 14/M03 A3005 RMK A01 T01441032  RH  030%=      5-min Rain = 0
KONS 172355Z 16009KT 14/M03 A3005 RMK A01 T01371032  RH  031%=      5-min Rain = 0
KONS 180000Z 16009KT 13/M03 A3005 RMK A01 T01301032  RH  033%=      5-min Rain = 0
KONS 180005Z 16010KT 12/M03 A3005 RMK A01 T01231032  RH  034%=      5-min Rain = 0
KONS 180010Z 17010KT 12/M03 A3005 RMK A01 T01161031  RH  036%=      5-min Rain = 0
KONS 180015Z 17009KT 11/M03 A3005 RMK A01 T01121031  RH  037%=      5-min Rain = 0
KONS 180020Z 16009KT 11/M03 A3005 RMK A01 T01091031  RH  038%=      5-min Rain = 0
KONS 180025Z 16010KT 11/M03 A3005 RMK A01 T01051030  RH  039%=      5-min Rain = 0
KONS 180030Z 16011KT 10/M03 A3005 RMK A01 T01021030  RH  040%=      5-min Rain = 0
KONS 180035Z 17011KT 10/M03 A3005 RMK A01 T01011031  RH  040%=      5-min Rain = 0
KONS 180040Z 17010KT 10/M03 A3005 RMK A01 T01011031  RH  040%=      5-min Rain = 0
KONS 180045Z 17009KT 10/M03 A3006 RMK A01 T00981030  RH  041%=      5-min Rain = 0
KONS 180050Z 17009KT 09/M03 A3006 RMK A01 T00941028  RH  043%=      5-min Rain = 0
KONS 180055Z 17011KT 09/M03 A3006 RMK A01 T00931030  RH  042%=      5-min Rain = 0
KONS 180100Z 17011KT 10/M03 A3006 RMK A01 T00951033  RH  041%=      5-min Rain = 0
KONS 180105Z 17011KT 09/M03 A3006 RMK A01 T00941034  RH  041%=      5-min Rain = 0
KONS 180110Z 17011KT 09/M03 A3006 RMK A01 T00931034  RH  041%=      5-min Rain = 0
KONS 180115Z 17010KT 09/M03 A3006 RMK A01 T00931034  RH  041%=      5-min Rain = 0
KONS 180120Z 17010KT 09/M03 A3006 RMK A01 T00911033  RH  042%=      5-min Rain = 0
KONS 180125Z 17010KT 09/M03 A3006 RMK A01 T00911034  RH  042%=      5-min Rain = 0
KONS 180130Z 17010KT 09/M03 A3006 RMK A01 T00891033  RH  042%=      5-min Rain = 0
KONS 180135Z 17010KT 09/M03 A3006 RMK A01 T00851032  RH  044%=      5-min Rain = 0
KONS 180140Z 17011KT 08/M03 A3006 RMK A01 T00841031  RH  045%=      5-min Rain = 0
KONS 180145Z 17011KT 09/M03 A3006 RMK A01 T00861031  RH  044%=      5-min Rain = 0
KONS 180150Z 17012KT 09/M03 A3005 RMK A01 T00901032  RH  043%=      5-min Rain = 0
KONS 180155Z 17012KT 09/M03 A3005 RMK A01 T00911032  RH  042%=      5-min Rain = 0
KONS 180200Z 17011KT 09/M03 A3005 RMK A01 T00861031  RH  044%=      5-min Rain = 0
KONS 180205Z 18012KT 08/M03 A3005 RMK A01 T00801030  RH  046%=      5-min Rain = 0
KONS 180210Z 18011KT 07/M03 A3005 RMK A01 T00731028  RH  049%=      5-min Rain = 0
KONS 180215Z 18011KT 07/M03 A3005 RMK A01 T00691026  RH  051%=      5-min Rain = 0
KONS 180220Z 18011KT 07/M03 A3005 RMK A01 T00681026  RH  052%=      5-min Rain = 0
KONS 180225Z 18011KT 07/M03 A3005 RMK A01 T00701026  RH  051%=      5-min Rain = 0
KONS 180230Z 18011KT 07/M03 A3005 RMK A01 T00691027  RH  051%=      5-min Rain = 0
KONS 180235Z 17010KT 07/M03 A3004 RMK A01 T00661028  RH  052%=      5-min Rain = 0
KONS 180240Z 17010KT 07/M03 A3004 RMK A01 T00661028  RH  052%=      5-min Rain = 0
KONS 180245Z 18010KT 07/M03 A3004 RMK A01 T00671029  RH  051%=      5-min Rain = 0
KONS 180250Z 18010KT 06/M03 A3004 RMK A01 T00631028  RH  053%=      5-min Rain = 0
KONS 180255Z 18010KT 06/M03 A3004 RMK A01 T00591028  RH  054%=      5-min Rain = 0
KONS 180300Z 18011KT 06/M03 A3004 RMK A01 T00591026  RH  055%=      5-min Rain = 0
KONS 180305Z 18012KT 06/M03 A3004 RMK A01 T00591025  RH  055%=      5-min Rain = 0
KONS 180310Z 18012KT 06/M02 A3004 RMK A01 T00641023  RH  055%=      5-min Rain = 0
KONS 180315Z 19012KT 07/M02 A3004 RMK A01 T00661021  RH  054%=      5-min Rain = 0
KONS 180320Z 18011KT 07/M02 A3004 RMK A01 T00661021  RH  054%=      5-min Rain = 0
KONS 180325Z 18010KT 06/M02 A3004 RMK A01 T00631021  RH  055%=      5-min Rain = 0
KONS 180330Z 18010KT 06/M02 A3003 RMK A01 T00601021  RH  057%=      5-min Rain = 0
KONS 180335Z 18010KT 06/M02 A3004 RMK A01 T00571022  RH  058%=      5-min Rain = 0
KONS 180340Z 18010KT 05/M02 A3003 RMK A01 T00531022  RH  059%=      5-min Rain = 0
KONS 180345Z 19009KT 05/M02 A3003 RMK A01 T00491021  RH  061%=      5-min Rain = 0
KONS 180350Z 19009KT 05/M02 A3003 RMK A01 T00481021  RH  062%=      5-min Rain = 0
KONS 180355Z 19009KT 05/M02 A3003 RMK A01 T00461021  RH  063%=      5-min Rain = 0
KONS 180400Z 19009KT 04/M02 A3003 RMK A01 T00431022  RH  063%=      5-min Rain = 0
KONS 180405Z 19010KT 04/M02 A3002 RMK A01 T00431022  RH  063%=      5-min Rain = 0
KONS 180410Z 19010KT 04/M02 A3002 RMK A01 T00421021  RH  064%=      5-min Rain = 0
KONS 180415Z 19009KT 04/M02 A3002 RMK A01 T00391021  RH  065%=      5-min Rain = 0
KONS 180420Z 20008KT 04/M02 A3002 RMK A01 T00351022  RH  067%=      5-min Rain = 0
KONS 180425Z 20008KT 03/M02 A3002 RMK A01 T00291024  RH  069%=      5-min Rain = 0
KONS 180430Z 19007KT 03/M03 A3002 RMK A01 T00251025  RH  070%=      5-min Rain = 0
KONS 180435Z 19008KT 02/M03 A3002 RMK A01 T00211026  RH  072%=      5-min Rain = 0
KONS 180440Z 19010KT 02/M03 A3002 RMK A01 T00191025  RH  073%=      5-min Rain = 0
KONS 180445Z 20010KT 02/M03 A3001 RMK A01 T00231025  RH  071%=      5-min Rain = 0
KONS 180450Z 19010KT 02/M03 A3002 RMK A01 T00231026  RH  071%=      5-min Rain = 0
KONS 180455Z 19010KT 02/M02 A3002 RMK A01 T00221024  RH  072%=      5-min Rain = 0
KONS 180500Z 20010KT 03/M02 A3002 RMK A01 T00281023  RH  070%=      5-min Rain = 0
KONS 180505Z 20011KT 03/M02 A3002 RMK A01 T00331023  RH  067%=      5-min Rain = 0
KONS 180510Z 20011KT 04/M02 A3002 RMK A01 T00371024  RH  065%=      5-min Rain = 0
KONS 180515Z 21010KT 04/M03 A3002 RMK A01 T00391025  RH  064%=      5-min Rain = 0
KONS 180520Z 21010KT 04/M02 A3002 RMK A01 T00401024  RH  063%=      5-min Rain = 0
KONS 180525Z 20011KT 05/M02 A3001 RMK A01 T00451023  RH  062%=      5-min Rain = 0
KONS 180530Z 20012KT 05/M02 A3001 RMK A01 T00471022  RH  062%=      5-min Rain = 0
KONS 180535Z 20013KT 05/M02 A3001 RMK A01 T00491020  RH  062%=      5-min Rain = 0
KONS 180540Z 20012KT 05/M02 A3001 RMK A01 T00511019  RH  061%=      5-min Rain = 0
KONS 180545Z 20012KT 05/M02 A3001 RMK A01 T00501018  RH  062%=      5-min Rain = 0
KONS 180550Z 20012KT 05/M02 A30 RMK A01 T00511017  RH  062%=      5-min Rain = 0
KONS 180555Z 20012KT 05/M02 A30 RMK A01 T00531016  RH  062%=      5-min Rain = 0

Page generated in 0.0093 seconds.